Time;durP1;ratioP1;P1;durP2;ratioP2;P2;SDS_P1;SDS_P2;PMS_P1;PMS_P2;Temp;Humidity;BMP_temperature;BMP_pressure;BME280_temperature;BME280_humidity;BME280_pressure;Samples;Min_cycle;Max_cycle;Signal;HPM_P1;HPM_P2
2023/03/13 00:00:55;;;;;;;29.83;11.30;;;;;;;;;;5093483;28;20194;-81
2023/03/13 00:03:23;;;;;;;29.00;12.20;;;;;;;;;;5094875;28;20233;-81
2023/03/13 00:05:55;;;;;;;26.70;11.27;;;;;;;;;;5093709;28;20273;-81
2023/03/13 00:08:24;;;;;;;31.60;13.27;;;;;;;;;;5093514;28;20287;-81
2023/03/13 00:10:52;;;;;;;17.83;9.23;;;;;;;;;;5093459;28;20270;-81
2023/03/13 00:13:22;;;;;;;29.20;14.20;;;;;;;;;;5093754;28;20276;-81
2023/03/13 00:15:51;;;;;;;30.73;12.77;;;;;;;;;;5093480;28;20198;-81
2023/03/13 00:18:19;;;;;;;20.07;8.13;;;;;;;;;;5093493;28;20266;-81
2023/03/13 00:20:49;;;;;;;33.67;12.17;;;;;;;;;;5093573;28;20292;-81
2023/03/13 00:23:17;;;;;;;33.13;12.50;;;;;;;;;;5093585;28;20219;-81
2023/03/13 00:25:46;;;;;;;24.47;10.77;;;;;;;;;;5094775;28;20336;-81
2023/03/13 00:28:14;;;;;;;37.17;12.13;;;;;;;;;;5096858;28;20317;-81
2023/03/13 00:30:44;;;;;;;28.70;13.67;;;;;;;;;;5096719;28;20210;-81
2023/03/13 00:33:13;;;;;;;29.50;15.03;;;;;;;;;;5097026;28;20419;-81
2023/03/13 00:35:41;;;;;;;29.83;16.13;;;;;;;;;;5097522;28;20296;-81
2023/03/13 00:38:09;;;;;;;30.60;15.43;;;;;;;;;;5097075;28;20198;-81
2023/03/13 00:40:38;;;;;;;35.03;18.17;;;;;;;;;;5097066;28;20219;-81
2023/03/13 00:43:06;;;;;;;28.70;14.40;;;;;;;;;;5096986;28;20302;-81
2023/03/13 00:45:34;;;;;;;32.27;17.67;;;;;;;;;;5097502;28;20228;-81
2023/03/13 00:48:04;;;;;;;24.00;14.47;;;;;;;;;;5097561;28;20222;-81
2023/03/13 00:50:32;;;;;;;25.00;18.40;;;;;;;;;;5096969;28;20297;-81
2023/03/13 00:53:01;;;;;;;26.60;16.57;;;;;;;;;;5096475;28;20189;-81
2023/03/13 00:55:29;;;;;;;27.20;22.07;;;;;;;;;;5096982;28;20201;-81
2023/03/13 00:57:57;;;;;;;30.57;18.23;;;;;;;;;;5096607;28;20335;-81
2023/03/13 01:00:26;;;;;;;29.17;17.57;;;;;;;;;;5096928;28;20297;-81
2023/03/13 01:02:54;;;;;;;18.30;15.80;;;;;;;;;;5096612;28;20289;-81
2023/03/13 01:05:24;;;;;;;26.30;19.07;;;;;;;;;;5096055;28;20238;-81
2023/03/13 01:07:52;;;;;;;26.37;18.10;;;;;;;;;;5096410;28;20285;-81
2023/03/13 01:10:21;;;;;;;25.03;19.33;;;;;;;;;;5096727;28;20221;-81
2023/03/13 01:12:49;;;;;;;26.27;22.43;;;;;;;;;;5096279;28;20248;-81
2023/03/13 01:15:18;;;;;;;28.37;25.57;;;;;;;;;;5096111;28;20193;-81
2023/03/13 01:17:46;;;;;;;27.03;24.33;;;;;;;;;;5096443;28;20225;-87
2023/03/13 01:20:15;;;;;;;19.03;13.47;;;;;;;;;;5096678;28;20209;-86
2023/03/13 01:22:44;;;;;;;22.53;19.13;;;;;;;;;;5096589;28;20305;-86
2023/03/13 01:25:13;;;;;;;23.13;20.73;;;;;;;;;;5096040;28;20276;-87
2023/03/13 01:27:41;;;;;;;12.97;11.23;;;;;;;;;;5096251;28;20306;-87
2023/03/13 01:30:10;;;;;;;18.77;16.80;;;;;;;;;;5096665;28;20227;-88
2023/03/13 01:32:39;;;;;;;17.03;14.80;;;;;;;;;;5097040;28;20222;-81
2023/03/13 01:35:07;;;;;;;10.53;9.43;;;;;;;;;;5096539;28;20293;-81
2023/03/13 01:37:35;;;;;;;8.87;7.50;;;;;;;;;;5096158;28;20205;-87
2023/03/13 01:40:06;;;;;;;14.63;13.17;;;;;;;;;;5096515;28;20309;-87
2023/03/13 01:42:49;;;;;;;10.27;9.23;;;;;;;;;;5096283;28;20207;-86
2023/03/13 01:45:36;;;;;;;8.40;7.23;;;;;;;;;;5096703;28;20240;-87
2023/03/13 01:48:05;;;;;;;4.03;3.67;;;;;;;;;;5096993;28;20199;-87
2023/03/13 01:50:33;;;;;;;8.93;8.03;;;;;;;;;;5096757;28;20227;-87
2023/03/13 01:53:01;;;;;;;6.93;6.27;;;;;;;;;;5096304;28;20188;-87
2023/03/13 01:55:31;;;;;;;6.07;5.27;;;;;;;;;;5097034;28;20203;-86
2023/03/13 01:58:00;;;;;;;8.20;4.23;;;;;;;;;;5097091;28;20207;-87
2023/03/13 02:00:32;;;;;;;14.03;12.73;;;;;;;;;;5096470;28;20256;-86
2023/03/13 02:03:03;;;;;;;10.03;7.90;;;;;;;;;;5095581;28;20214;-88
2023/03/13 02:05:34;;;;;;;7.77;6.90;;;;;;;;;;5096184;28;20260;-87
2023/03/13 02:08:03;;;;;;;9.40;8.40;;;;;;;;;;5095964;28;20248;-87
2023/03/13 02:10:34;;;;;;;6.87;5.27;;;;;;;;;;5095583;28;20246;-86
2023/03/13 02:13:03;;;;;;;9.20;8.07;;;;;;;;;;5095971;28;20270;-87
2023/03/13 02:15:32;;;;;;;7.80;7.10;;;;;;;;;;5095896;28;20226;-88
2023/03/13 02:18:00;;;;;;;9.53;8.63;;;;;;;;;;5096170;28;20234;-85
2023/03/13 02:20:29;;;;;;;8.57;5.60;;;;;;;;;;5096079;28;20225;-87
2023/03/13 02:23:01;;;;;;;7.13;4.97;;;;;;;;;;5095606;28;20242;-86
2023/03/13 02:25:35;;;;;;;5.57;4.77;;;;;;;;;;5095228;28;20231;-87
2023/03/13 02:28:05;;;;;;;5.00;4.50;;;;;;;;;;5095839;28;20297;-86
2023/03/13 02:30:34;;;;;;;6.50;4.10;;;;;;;;;;5095613;28;20224;-87
2023/03/13 02:33:03;;;;;;;6.10;5.27;;;;;;;;;;5095686;28;20224;-87
2023/03/13 02:35:32;;;;;;;10.10;8.77;;;;;;;;;;5095781;28;20288;-87
2023/03/13 02:38:02;;;;;;;9.50;5.87;;;;;;;;;;5095164;28;20200;-87
2023/03/13 02:40:33;;;;;;;9.43;7.90;;;;;;;;;;5095768;28;20226;-86
2023/03/13 02:43:05;;;;;;;11.20;9.70;;;;;;;;;;5094899;28;20196;-87
2023/03/13 02:45:33;;;;;;;10.97;6.53;;;;;;;;;;5095249;28;20232;-87
2023/03/13 02:48:02;;;;;;;18.40;12.50;;;;;;;;;;5094085;28;20203;-81
2023/03/13 02:50:30;;;;;;;10.73;7.07;;;;;;;;;;5094625;28;20536;-81
2023/03/13 02:53:01;;;;;;;18.53;9.20;;;;;;;;;;5094830;28;20239;-82
2023/03/13 02:55:30;;;;;;;9.20;6.77;;;;;;;;;;5095057;28;20287;-81
2023/03/13 02:57:59;;;;;;;15.57;10.63;;;;;;;;;;5094847;28;20231;-81
2023/03/13 03:00:28;;;;;;;12.63;7.83;;;;;;;;;;5095055;28;20262;-81
2023/03/13 03:02:57;;;;;;;11.10;6.43;;;;;;;;;;5094508;28;20197;-81
2023/03/13 03:05:25;;;;;;;19.67;8.67;;;;;;;;;;5096624;28;20236;-81
2023/03/13 03:07:54;;;;;;;15.60;8.57;;;;;;;;;;5094322;28;20200;-82
2023/03/13 03:10:22;;;;;;;11.23;6.23;;;;;;;;;;5094729;28;20248;-81
2023/03/13 03:12:51;;;;;;;14.90;5.70;;;;;;;;;;5094290;28;20296;-81
2023/03/13 03:15:19;;;;;;;14.67;7.70;;;;;;;;;;5095019;28;20255;-88
2023/03/13 03:17:49;;;;;;;24.13;7.17;;;;;;;;;;5094876;28;20207;-88
2023/03/13 03:20:17;;;;;;;12.50;7.37;;;;;;;;;;5094605;28;20286;-87
2023/03/13 03:22:45;;;;;;;6.93;4.10;;;;;;;;;;5094935;28;20236;-88
2023/03/13 03:25:14;;;;;;;11.77;6.27;;;;;;;;;;5094913;28;20257;-87
2023/03/13 03:27:42;;;;;;;8.10;3.73;;;;;;;;;;5094540;28;20193;-86
2023/03/13 03:30:11;;;;;;;6.77;3.20;;;;;;;;;;5094484;28;20311;-84
2023/03/13 03:32:39;;;;;;;10.37;5.40;;;;;;;;;;5094750;28;20204;-85
2023/03/13 03:35:10;;;;;;;9.77;5.13;;;;;;;;;;5094411;28;20201;-84
2023/03/13 03:37:38;;;;;;;8.47;4.27;;;;;;;;;;5094458;28;20292;-84
2023/03/13 03:40:08;;;;;;;12.20;5.70;;;;;;;;;;5094015;28;20225;-85
2023/03/13 03:42:36;;;;;;;10.40;5.97;;;;;;;;;;5094143;28;20296;-83
2023/03/13 03:45:05;;;;;;;12.40;5.80;;;;;;;;;;5093790;28;20223;-85
2023/03/13 03:47:33;;;;;;;16.47;6.20;;;;;;;;;;5094119;28;20201;-85
2023/03/13 03:50:03;;;;;;;10.90;5.10;;;;;;;;;;5094529;28;20219;-84
2023/03/13 03:52:32;;;;;;;11.03;5.60;;;;;;;;;;5093660;28;20250;-79
2023/03/13 03:55:01;;;;;;;9.97;4.20;;;;;;;;;;5094028;28;20207;-79
2023/03/13 03:57:29;;;;;;;5.80;3.37;;;;;;;;;;5093655;28;20193;-79
2023/03/13 03:59:58;;;;;;;13.07;8.43;;;;;;;;;;5093499;28;20360;-79
2023/03/13 04:02:26;;;;;;;8.70;4.60;;;;;;;;;;5093658;28;20225;-84
2023/03/13 04:04:55;;;;;;;14.33;5.40;;;;;;;;;;5094059;28;20229;-84
2023/03/13 04:07:23;;;;;;;16.00;5.87;;;;;;;;;;5094295;28;20205;-85
2023/03/13 04:09:53;;;;;;;17.33;5.13;;;;;;;;;;5094124;28;20331;-85
2023/03/13 04:12:21;;;;;;;14.77;5.23;;;;;;;;;;5094176;28;20205;-84
2023/03/13 04:14:50;;;;;;;12.20;4.50;;;;;;;;;;5094231;28;20231;-85
2023/03/13 04:17:18;;;;;;;17.77;5.17;;;;;;;;;;5093989;28;20292;-85
2023/03/13 04:19:46;;;;;;;10.77;5.47;;;;;;;;;;5094174;28;20204;-84
2023/03/13 04:22:15;;;;;;;13.40;5.77;;;;;;;;;;5094458;28;20220;-84
2023/03/13 04:24:43;;;;;;;12.43;4.67;;;;;;;;;;5094220;28;20269;-85
2023/03/13 04:27:13;;;;;;;9.17;5.13;;;;;;;;;;5094217;28;20201;-78
2023/03/13 04:29:41;;;;;;;14.70;5.03;;;;;;;;;;5093461;28;20239;-78
2023/03/13 04:32:10;;;;;;;10.73;5.23;;;;;;;;;;5093413;28;20245;-79
2023/03/13 04:34:38;;;;;;;8.23;4.57;;;;;;;;;;5093527;28;20196;-79
2023/03/13 04:37:07;;;;;;;13.23;5.20;;;;;;;;;;5093453;28;20207;-79
2023/03/13 04:39:35;;;;;;;12.27;5.60;;;;;;;;;;5093092;28;20232;-79
2023/03/13 04:42:03;;;;;;;11.97;5.83;;;;;;;;;;5093057;28;20211;-79
2023/03/13 04:44:33;;;;;;;11.43;5.53;;;;;;;;;;5093165;28;20350;-79
2023/03/13 04:47:01;;;;;;;13.80;8.30;;;;;;;;;;5093160;28;20205;-79
2023/03/13 04:49:30;;;;;;;16.77;5.30;;;;;;;;;;5093181;28;20339;-79
2023/03/13 04:51:58;;;;;;;6.13;4.63;;;;;;;;;;5092996;28;20315;-79
2023/03/13 04:54:27;;;;;;;13.17;6.00;;;;;;;;;;5093168;28;20208;-79
2023/03/13 04:56:55;;;;;;;7.47;4.13;;;;;;;;;;5093038;28;20260;-79
2023/03/13 04:59:23;;;;;;;10.20;4.87;;;;;;;;;;5093323;28;20204;-79
2023/03/13 05:01:53;;;;;;;16.03;5.60;;;;;;;;;;5093022;28;20357;-79
2023/03/13 05:04:21;;;;;;;16.00;7.90;;;;;;;;;;5093843;28;20303;-79
2023/03/13 05:06:50;;;;;;;13.07;5.57;;;;;;;;;;5093820;28;20236;-79
2023/03/13 05:09:18;;;;;;;8.33;4.20;;;;;;;;;;5094181;28;20201;-79
2023/03/13 05:11:47;;;;;;;18.17;7.40;;;;;;;;;;5095531;28;20212;-79
2023/03/13 05:14:15;;;;;;;9.60;5.20;;;;;;;;;;5097486;28;20259;-79
2023/03/13 05:16:43;;;;;;;16.20;4.17;;;;;;;;;;5096660;28;20270;-79
2023/03/13 05:19:13;;;;;;;14.47;6.80;;;;;;;;;;5096588;28;20211;-79
2023/03/13 05:21:41;;;;;;;14.53;5.63;;;;;;;;;;5096382;28;20189;-84
2023/03/13 05:24:10;;;;;;;9.70;5.20;;;;;;;;;;5096749;28;20260;-84
2023/03/13 05:26:38;;;;;;;19.20;6.73;;;;;;;;;;5096596;28;20594;-84
2023/03/13 05:29:06;;;;;;;11.03;4.90;;;;;;;;;;5096932;28;20205;-84
2023/03/13 05:31:35;;;;;;;7.03;4.03;;;;;;;;;;5096519;28;20252;-84
2023/03/13 05:34:03;;;;;;;13.50;4.03;;;;;;;;;;5096077;28;20261;-84
2023/03/13 05:36:33;;;;;;;10.00;4.50;;;;;;;;;;5095940;28;20205;-84
2023/03/13 05:39:01;;;;;;;11.13;3.80;;;;;;;;;;5096168;28;20201;-79
2023/03/13 05:41:30;;;;;;;19.43;5.90;;;;;;;;;;5096199;28;20464;-78
2023/03/13 05:43:58;;;;;;;15.73;6.13;;;;;;;;;;5096261;28;20197;-79
2023/03/13 05:46:27;;;;;;;15.37;4.53;;;;;;;;;;5096317;28;20201;-79
2023/03/13 05:48:55;;;;;;;11.60;4.20;;;;;;;;;;5096122;28;20228;-79
2023/03/13 05:51:23;;;;;;;16.60;5.27;;;;;;;;;;5096028;28;20259;-79
2023/03/13 05:53:53;;;;;;;12.70;4.90;;;;;;;;;;5096266;28;20205;-79
2023/03/13 05:56:21;;;;;;;13.93;4.13;;;;;;;;;;5095853;28;20227;-79
2023/03/13 05:58:50;;;;;;;13.13;4.87;;;;;;;;;;5096079;28;20293;-79
2023/03/13 06:01:18;;;;;;;11.13;5.40;;;;;;;;;;5095798;28;20287;-78
2023/03/13 06:03:50;;;;;;;22.00;6.30;;;;;;;;;;5095626;28;20271;-79
2023/03/13 06:06:18;;;;;;;19.27;7.10;;;;;;;;;;5095796;28;20208;-79
2023/03/13 06:08:47;;;;;;;20.60;7.90;;;;;;;;;;5095803;28;20197;-79
2023/03/13 06:11:16;;;;;;;6.13;3.17;;;;;;;;;;5095793;28;20244;-79
2023/03/13 06:13:45;;;;;;;19.23;4.27;;;;;;;;;;5095736;28;20207;-80
2023/03/13 06:16:13;;;;;;;8.57;3.87;;;;;;;;;;5095364;28;20216;-79
2023/03/13 06:18:41;;;;;;;15.57;5.30;;;;;;;;;;5095563;28;20308;-80
2023/03/13 06:21:10;;;;;;;18.97;7.47;;;;;;;;;;5095703;28;20262;-80
2023/03/13 06:23:38;;;;;;;19.70;6.60;;;;;;;;;;5095344;28;20299;-80
2023/03/13 06:26:07;;;;;;;17.00;5.17;;;;;;;;;;5095712;28;20201;-79
2023/03/13 06:28:37;;;;;;;6.23;3.77;;;;;;;;;;5095931;28;20231;-85
2023/03/13 06:31:06;;;;;;;10.93;6.33;;;;;;;;;;5095994;28;20221;-84
2023/03/13 06:33:34;;;;;;;10.23;4.20;;;;;;;;;;5095666;28;20197;-84
2023/03/13 06:36:04;;;;;;;10.50;4.77;;;;;;;;;;5094947;28;20205;-86
2023/03/13 06:38:33;;;;;;;19.73;7.30;;;;;;;;;;5095722;28;20201;-85
2023/03/13 06:41:01;;;;;;;16.60;5.73;;;;;;;;;;5095411;28;20213;-86
2023/03/13 06:43:30;;;;;;;12.77;5.10;;;;;;;;;;5095669;28;20250;-86
2023/03/13 06:46:03;;;;;;;13.60;4.70;;;;;;;;;;5095779;28;20262;-86
2023/03/13 06:48:32;;;;;;;18.60;4.77;;;;;;;;;;5095859;28;20197;-84
2023/03/13 06:51:00;;;;;;;11.23;5.33;;;;;;;;;;5095442;28;20208;-85
2023/03/13 06:53:28;;;;;;;14.10;5.13;;;;;;;;;;5095529;28;20244;-84
2023/03/13 06:55:57;;;;;;;11.43;4.67;;;;;;;;;;5095440;28;20387;-85
2023/03/13 06:58:25;;;;;;;9.67;5.00;;;;;;;;;;5095097;28;20209;-85
2023/03/13 07:01:06;;;;;;;16.57;5.07;;;;;;;;;;5095084;28;20211;-86
2023/03/13 07:03:35;;;;;;;9.53;4.27;;;;;;;;;;5095396;28;20196;-86
2023/03/13 07:06:04;;;;;;;8.90;4.97;;;;;;;;;;5095077;28;20251;-86
2023/03/13 07:08:33;;;;;;;12.73;4.43;;;;;;;;;;5095058;28;20260;-85
2023/03/13 07:11:02;;;;;;;6.73;4.03;;;;;;;;;;5095163;28;20201;-85
2023/03/13 07:13:31;;;;;;;9.80;3.77;;;;;;;;;;5095139;28;20260;-87
2023/03/13 07:16:03;;;;;;;6.60;3.13;;;;;;;;;;5095069;28;20256;-86
2023/03/13 07:18:31;;;;;;;13.63;3.93;;;;;;;;;;5095298;28;20207;-86
2023/03/13 07:21:00;;;;;;;20.83;6.93;;;;;;;;;;5095467;28;20205;-86
2023/03/13 07:23:30;;;;;;;10.13;3.67;;;;;;;;;;5094931;28;20233;-85
2023/03/13 07:25:59;;;;;;;16.93;5.07;;;;;;;;;;5094841;28;20197;-85
2023/03/13 07:28:28;;;;;;;11.93;4.67;;;;;;;;;;5094533;28;20197;-86
2023/03/13 07:30:56;;;;;;;14.83;5.33;;;;;;;;;;5094702;28;20225;-86
2023/03/13 07:33:26;;;;;;;9.97;2.90;;;;;;;;;;5094388;28;20252;-86
2023/03/13 07:35:55;;;;;;;13.43;5.77;;;;;;;;;;5094326;28;20283;-86
2023/03/13 07:38:23;;;;;;;14.03;5.63;;;;;;;;;;5094445;28;20273;-85
2023/03/13 07:40:53;;;;;;;7.87;4.73;;;;;;;;;;5094282;28;20216;-86
2023/03/13 07:43:21;;;;;;;13.53;4.90;;;;;;;;;;5094298;28;20254;-86
2023/03/13 07:45:51;;;;;;;7.20;2.37;;;;;;;;;;5094750;28;20197;-86
2023/03/13 07:48:20;;;;;;;17.47;5.00;;;;;;;;;;5094920;28;20200;-85
2023/03/13 07:50:49;;;;;;;12.73;5.37;;;;;;;;;;5094869;28;20196;-84
2023/03/13 07:53:20;;;;;;;12.90;4.93;;;;;;;;;;5094665;28;20223;-85
2023/03/13 07:55:53;;;;;;;13.27;5.57;;;;;;;;;;5094723;28;20211;-83
2023/03/13 07:58:21;;;;;;;12.47;4.50;;;;;;;;;;5094298;28;20213;-85
2023/03/13 08:00:50;;;;;;;10.70;5.70;;;;;;;;;;5094264;28;20206;-85
2023/03/13 08:03:18;;;;;;;16.90;5.70;;;;;;;;;;5094514;28;20258;-84
2023/03/13 08:05:47;;;;;;;17.40;5.00;;;;;;;;;;5114829;28;20199;-86
2023/03/13 08:08:16;;;;;;;14.17;4.93;;;;;;;;;;5114452;28;20203;-85
2023/03/13 08:10:45;;;;;;;8.60;3.13;;;;;;;;;;5114979;28;20295;-85
2023/03/13 08:13:13;;;;;;;13.60;4.43;;;;;;;;;;5114676;28;20270;-86
2023/03/13 08:15:42;;;;;;;17.17;5.17;;;;;;;;;;5113711;28;20192;-79
2023/03/13 08:18:11;;;;;;;11.60;4.47;;;;;;;;;;5114013;28;20200;-79
2023/03/13 08:20:39;;;;;;;12.33;5.50;;;;;;;;;;5113909;28;20226;-79
2023/03/13 08:23:08;;;;;;;14.30;4.13;;;;;;;;;;5113494;28;20196;-79
2023/03/13 08:25:37;;;;;;;15.63;5.07;;;;;;;;;;5113698;28;20291;-79
2023/03/13 08:28:06;;;;;;;11.80;4.27;;;;;;;;;;5113907;28;20291;-79
2023/03/13 08:30:34;;;;;;;9.73;4.50;;;;;;;;;;5113958;28;20219;-79
2023/03/13 08:33:02;;;;;;;13.63;4.30;;;;;;;;;;5113897;28;20215;-79
2023/03/13 08:35:34;;;;;;;16.80;4.73;;;;;;;;;;5113954;28;20203;-79
2023/03/13 08:38:03;;;;;;;10.53;3.67;;;;;;;;;;5113456;28;20203;-78
2023/03/13 08:40:31;;;;;;;8.97;4.10;;;;;;;;;;5113891;28;20220;-79
2023/03/13 08:43:01;;;;;;;9.30;4.90;;;;;;;;;;5113168;28;20196;-79
2023/03/13 08:45:29;;;;;;;12.87;3.53;;;;;;;;;;5113339;28;20291;-79
2023/03/13 08:47:58;;;;;;;15.50;4.63;;;;;;;;;;5117592;28;20203;-79
2023/03/13 08:50:26;;;;;;;8.47;3.40;;;;;;;;;;5117483;28;20206;-79
2023/03/13 08:52:54;;;;;;;6.87;3.30;;;;;;;;;;5117882;28;20223;-79
2023/03/13 08:55:23;;;;;;;17.63;5.00;;;;;;;;;;5118176;28;20219;-79
2023/03/13 08:57:53;;;;;;;29.97;5.47;;;;;;;;;;5117711;28;20196;-79
2023/03/13 09:00:23;;;;;;;11.97;3.53;;;;;;;;;;5117809;28;20196;-79
2023/03/13 09:02:52;;;;;;;11.63;4.20;;;;;;;;;;5117934;28;20457;-79
2023/03/13 09:05:20;;;;;;;11.77;5.97;;;;;;;;;;5100219;28;20232;-79
2023/03/13 09:07:49;;;;;;;13.10;4.20;;;;;;;;;;5097048;28;20197;-79
2023/03/13 09:10:17;;;;;;;19.93;5.13;;;;;;;;;;5096733;28;20193;-79
2023/03/13 09:12:47;;;;;;;11.10;4.67;;;;;;;;;;5096442;28;20217;-78
2023/03/13 09:15:15;;;;;;;9.30;3.47;;;;;;;;;;5096570;28;20193;-78
2023/03/13 09:17:45;;;;;;;13.17;5.10;;;;;;;;;;5096410;28;20205;-78
2023/03/13 09:20:14;;;;;;;9.40;3.80;;;;;;;;;;5096531;28;20232;-78
2023/03/13 09:22:42;;;;;;;17.83;4.93;;;;;;;;;;5096072;28;20185;-79
2023/03/13 09:25:10;;;;;;;16.10;5.43;;;;;;;;;;5095957;28;20211;-79
2023/03/13 09:27:39;;;;;;;18.70;3.83;;;;;;;;;;5095930;28;20197;-79
2023/03/13 09:30:08;;;;;;;11.43;3.87;;;;;;;;;;5096580;28;20223;-79
2023/03/13 09:32:36;;;;;;;11.63;4.17;;;;;;;;;;5095839;28;20221;-79
2023/03/13 09:35:07;;;;;;;16.60;5.07;;;;;;;;;;5095721;28;20269;-79
2023/03/13 09:37:35;;;;;;;12.00;4.63;;;;;;;;;;5096144;28;20213;-79
2023/03/13 09:40:04;;;;;;;17.67;6.10;;;;;;;;;;5095536;28;20213;-79
2023/03/13 09:42:36;;;;;;;16.50;5.70;;;;;;;;;;5095560;28;20197;-79
2023/03/13 09:45:07;;;;;;;11.83;4.90;;;;;;;;;;5095807;28;20224;-79
2023/03/13 09:47:41;;;;;;;14.73;5.27;;;;;;;;;;5096042;28;20205;-79
2023/03/13 09:50:14;;;;;;;22.67;8.07;;;;;;;;;;5095258;28;20197;-79
2023/03/13 09:52:43;;;;;;;10.03;4.50;;;;;;;;;;5095630;28;20231;-79
2023/03/13 09:55:15;;;;;;;13.53;4.27;;;;;;;;;;5095252;28;20243;-79
2023/03/13 09:57:48;;;;;;;16.43;4.97;;;;;;;;;;5095206;28;20194;-79
2023/03/13 10:00:19;;;;;;;16.70;5.97;;;;;;;;;;5095550;28;20254;-79
2023/03/13 10:02:48;;;;;;;22.23;5.10;;;;;;;;;;5095740;28;20205;-79
2023/03/13 10:05:21;;;;;;;18.57;7.53;;;;;;;;;;5095217;28;20282;-79
2023/03/13 10:07:49;;;;;;;12.03;4.40;;;;;;;;;;5095167;28;20201;-79
2023/03/13 10:10:19;;;;;;;17.63;3.30;;;;;;;;;;5095311;28;20227;-79
2023/03/13 10:12:49;;;;;;;17.70;4.93;;;;;;;;;;5095422;28;20192;-79
2023/03/13 10:15:28;;;;;;;13.17;4.67;;;;;;;;;;5095683;28;20197;-79
2023/03/13 10:17:58;;;;;;;13.70;3.80;;;;;;;;;;5094663;28;20193;-79
2023/03/13 10:20:29;;;;;;;13.03;4.70;;;;;;;;;;5095463;28;20227;-79
2023/03/13 10:23:00;;;;;;;16.57;6.53;;;;;;;;;;5096230;28;20213;-85
2023/03/13 10:25:31;;;;;;;7.73;3.27;;;;;;;;;;5095771;28;20209;-85
2023/03/13 10:27:59;;;;;;;15.07;3.90;;;;;;;;;;5096787;28;20197;-85
2023/03/13 10:30:29;;;;;;;13.90;4.83;;;;;;;;;;5096365;28;20204;-86
2023/03/13 10:32:59;;;;;;;12.77;3.53;;;;;;;;;;5095736;28;20232;-86
2023/03/13 10:35:34;;;;;;;8.33;3.50;;;;;;;;;;5096294;28;20205;-85
2023/03/13 10:38:06;;;;;;;14.70;6.20;;;;;;;;;;5095861;28;20223;-86
2023/03/13 10:40:34;;;;;;;11.23;4.13;;;;;;;;;;5095820;28;20255;-86
2023/03/13 10:43:04;;;;;;;14.10;5.47;;;;;;;;;;5095716;28;20201;-86
2023/03/13 10:45:34;;;;;;;17.77;5.47;;;;;;;;;;5094965;28;20200;-78
2023/03/13 10:48:04;;;;;;;12.23;3.80;;;;;;;;;;5094806;28;20197;-79
2023/03/13 10:50:36;;;;;;;4.90;2.53;;;;;;;;;;5094621;28;20225;-79
2023/03/13 10:53:18;;;;;;;20.07;4.97;;;;;;;;;;5094760;28;20198;-79
2023/03/13 10:55:46;;;;;;;12.13;3.60;;;;;;;;;;5094687;28;20236;-80
2023/03/13 10:58:19;;;;;;;10.57;3.57;;;;;;;;;;5094486;28;20252;-80
2023/03/13 11:00:48;;;;;;;9.80;3.83;;;;;;;;;;5094463;28;20287;-79
2023/03/13 11:03:18;;;;;;;14.37;4.63;;;;;;;;;;5094680;28;20201;-79
2023/03/13 11:05:56;;;;;;;11.40;5.67;;;;;;;;;;5094560;28;20197;-80
2023/03/13 11:08:25;;;;;;;11.57;5.03;;;;;;;;;;5094391;28;20239;-80
2023/03/13 11:10:56;;;;;;;13.07;3.63;;;;;;;;;;5094288;28;20201;-80
2023/03/13 11:13:28;;;;;;;15.23;5.10;;;;;;;;;;5093798;28;20247;-81
2023/03/13 11:16:10;;;;;;;27.17;7.50;;;;;;;;;;5094203;28;20209;-80
2023/03/13 11:18:42;;;;;;;8.73;4.50;;;;;;;;;;5094587;28;20219;-80
2023/03/13 11:21:17;;;;;;;11.43;4.43;;;;;;;;;;5094068;28;20254;-80
2023/03/13 11:23:48;;;;;;;8.00;3.63;;;;;;;;;;5093891;28;20305;-80
2023/03/13 11:26:20;;;;;;;8.37;3.60;;;;;;;;;;5094036;28;20201;-80
2023/03/13 11:28:53;;;;;;;16.03;4.87;;;;;;;;;;5094156;28;20236;-80
2023/03/13 11:31:23;;;;;;;16.80;4.43;;;;;;;;;;5093909;28;20295;-79
2023/03/13 11:33:57;;;;;;;10.27;4.27;;;;;;;;;;5093504;28;20224;-79
2023/03/13 11:36:32;;;;;;;17.63;5.90;;;;;;;;;;5093924;28;20193;-85
2023/03/13 11:39:04;;;;;;;17.83;5.77;;;;;;;;;;5094004;28;20210;-85
2023/03/13 11:41:47;;;;;;;13.97;4.73;;;;;;;;;;5093924;28;20259;-87
2023/03/13 11:44:23;;;;;;;10.23;3.87;;;;;;;;;;5092656;28;20200;-85
2023/03/13 11:46:56;;;;;;;14.20;4.90;;;;;;;;;;5094076;28;20189;-85
2023/03/13 11:49:51;;;;;;;17.27;5.47;;;;;;;;;;5093753;28;20193;-87
2023/03/13 11:52:25;;;;;;;13.17;4.90;;;;;;;;;;5094633;28;20216;-87
2023/03/13 11:55:03;;;;;;;20.17;5.10;;;;;;;;;;5095035;28;20242;-83
2023/03/13 11:57:36;;;;;;;24.00;8.10;;;;;;;;;;5094475;28;20192;-84
2023/03/13 12:00:16;;;;;;;18.63;5.33;;;;;;;;;;5094155;28;20205;-84
2023/03/13 12:02:48;;;;;;;20.73;7.37;;;;;;;;;;5094461;28;20265;-84
2023/03/13 12:05:18;;;;;;;19.00;6.80;;;;;;;;;;5093738;28;20268;-85
2023/03/13 12:07:50;;;;;;;28.07;8.30;;;;;;;;;;5094484;28;20197;-87
2023/03/13 12:10:21;;;;;;;16.97;7.10;;;;;;;;;;5094349;28;20288;-86
2023/03/13 12:12:52;;;;;;;17.10;5.37;;;;;;;;;;5094497;28;20292;-87
2023/03/13 12:15:22;;;;;;;22.23;6.20;;;;;;;;;;5093699;28;20213;-86
2023/03/13 12:17:53;;;;;;;17.90;5.63;;;;;;;;;;5093660;28;20194;-84
2023/03/13 12:20:25;;;;;;;19.63;6.87;;;;;;;;;;5094748;28;20198;-85
2023/03/13 12:22:58;;;;;;;17.80;4.83;;;;;;;;;;5098087;28;20197;-84
2023/03/13 12:25:29;;;;;;;19.80;5.93;;;;;;;;;;5098411;28;20197;-85
2023/03/13 12:28:01;;;;;;;13.77;6.13;;;;;;;;;;5098548;28;20193;-84
2023/03/13 12:30:34;;;;;;;18.37;7.67;;;;;;;;;;5098391;28;20229;-84
2023/03/13 12:33:06;;;;;;;14.87;4.93;;;;;;;;;;5098091;28;20220;-84
2023/03/13 12:35:36;;;;;;;33.43;8.17;;;;;;;;;;5098262;28;20212;-85
2023/03/13 12:38:12;;;;;;;13.77;5.70;;;;;;;;;;5098253;28;20238;-85
2023/03/13 12:40:44;;;;;;;13.40;5.50;;;;;;;;;;5097862;28;20308;-84
2023/03/13 12:43:18;;;;;;;18.70;6.63;;;;;;;;;;5098363;28;20210;-84
2023/03/13 12:45:51;;;;;;;24.53;7.60;;;;;;;;;;5097809;28;20189;-84
2023/03/13 12:48:39;;;;;;;22.80;8.70;;;;;;;;;;5098536;28;20205;-84
2023/03/13 12:51:17;;;;;;;13.63;4.27;;;;;;;;;;5097612;28;20279;-84
2023/03/13 12:53:56;;;;;;;11.73;5.37;;;;;;;;;;5097559;28;20229;-84
2023/03/13 12:56:36;;;;;;;17.27;5.20;;;;;;;;;;5097270;28;20213;-84
2023/03/13 12:59:07;;;;;;;13.73;5.10;;;;;;;;;;5097330;28;20196;-85
2023/03/13 13:01:37;;;;;;;14.83;5.77;;;;;;;;;;5097553;28;20205;-85
2023/03/13 13:04:07;;;;;;;14.33;5.20;;;;;;;;;;5099370;28;20231;-84
2023/03/13 13:06:53;;;;;;;19.73;6.27;;;;;;;;;;5097918;28;20199;-83
2023/03/13 13:09:25;;;;;;;22.03;6.73;;;;;;;;;;5097909;28;20233;-84
2023/03/13 13:11:55;;;;;;;23.90;5.77;;;;;;;;;;5097982;28;20427;-86
2023/03/13 13:14:54;;;;;;;16.23;5.37;;;;;;;;;;5097823;28;20221;-86
2023/03/13 13:17:26;;;;;;;19.07;6.57;;;;;;;;;;5096535;28;20243;-84
2023/03/13 13:19:56;;;;;;;23.27;7.00;;;;;;;;;;5096521;28;20197;-85
2023/03/13 13:22:43;;;;;;;23.87;6.53;;;;;;;;;;5096513;28;20201;-80
2023/03/13 13:25:26;;;;;;;22.60;6.47;;;;;;;;;;5096244;28;20195;-80
2023/03/13 13:27:56;;;;;;;16.50;6.50;;;;;;;;;;5096246;28;20213;-80
2023/03/13 13:30:31;;;;;;;17.77;5.77;;;;;;;;;;5096253;28;20274;-80
2023/03/13 13:33:14;;;;;;;18.07;7.70;;;;;;;;;;5095561;28;20208;-79
2023/03/13 13:35:43;;;;;;;14.90;6.37;;;;;;;;;;5096462;28;20221;-86
2023/03/13 13:38:22;;;;;;;20.27;5.20;;;;;;;;;;5096997;28;20288;-85
2023/03/13 13:41:02;;;;;;;9.13;3.50;;;;;;;;;;5097005;28;20220;-86
2023/03/13 13:43:33;;;;;;;19.80;5.13;;;;;;;;;;5098298;28;20220;-86
2023/03/13 13:46:06;;;;;;;21.47;5.63;;;;;;;;;;5097234;28;20199;-86
2023/03/13 13:48:36;;;;;;;21.23;7.20;;;;;;;;;;5097317;28;20197;-86
2023/03/13 13:51:36;;;;;;;15.73;4.03;;;;;;;;;;5096963;28;20291;-86
2023/03/13 13:54:07;;;;;;;14.17;4.93;;;;;;;;;;5015180;28;20275;-86
2023/03/13 13:56:43;;;;;;;10.13;3.80;;;;;;;;;;5081200;28;20217;-86
2023/03/13 13:59:39;;;;;;;15.10;6.70;;;;;;;;;;5097218;28;20271;-85
2023/03/13 14:02:28;;;;;;;16.67;5.83;;;;;;;;;;5096768;28;20240;-86
2023/03/13 14:05:02;;;;;;;29.50;6.33;;;;;;;;;;5089572;28;20298;-86
2023/03/13 14:07:38;;;;;;;17.83;6.03;;;;;;;;;;5095508;28;20201;-87
2023/03/13 14:10:09;;;;;;;28.83;8.53;;;;;;;;;;5095902;28;20204;-86
2023/03/13 14:12:38;;;;;;;21.93;6.63;;;;;;;;;;5095949;28;20197;-86
2023/03/13 14:15:08;;;;;;;26.30;8.07;;;;;;;;;;5095794;28;20456;-85
2023/03/13 14:17:40;;;;;;;22.63;9.40;;;;;;;;;;5095184;28;20197;-86
2023/03/13 14:20:32;;;;;;;27.67;9.40;;;;;;;;;;5095546;28;20197;-86
2023/03/13 14:23:02;;;;;;;20.57;7.07;;;;;;;;;;5095471;28;20241;-85
2023/03/13 14:25:42;;;;;;;20.50;9.20;;;;;;;;;;5095671;28;20193;-85
2023/03/13 14:28:17;;;;;;;16.67;5.33;;;;;;;;;;5095885;28;20201;-86
2023/03/13 14:30:46;;;;;;;19.07;8.10;;;;;;;;;;5096104;28;20201;-86
2023/03/13 14:33:15;;;;;;;21.27;7.07;;;;;;;;;;5096168;28;20197;-85
2023/03/13 14:35:45;;;;;;;22.90;7.23;;;;;;;;;;5095941;28;20286;-86
2023/03/13 14:38:18;;;;;;;26.97;10.13;;;;;;;;;;5095857;28;20204;-86
2023/03/13 14:40:46;;;;;;;23.63;8.90;;;;;;;;;;5095374;28;20255;-86
2023/03/13 14:43:21;;;;;;;18.13;6.37;;;;;;;;;;5095381;28;20201;-86
2023/03/13 14:45:50;;;;;;;18.23;5.00;;;;;;;;;;5095431;28;20235;-86
2023/03/13 14:48:21;;;;;;;17.60;4.63;;;;;;;;;;5095481;28;20250;-86
2023/03/13 14:50:52;;;;;;;22.30;8.20;;;;;;;;;;5095499;28;20201;-85